sensor_id;sensor_type;location;lat;lon;timestamp;P1;durP1;ratioP1;P2;durP2;ratioP2
13083;SDS011;6608;48.790;9.198;2023-04-21T08:09:46;159.60;;;67.53;;
13083;SDS011;6608;48.790;9.198;2023-04-21T08:12:12;162.80;;;70.50;;
13083;SDS011;6608;48.790;9.198;2023-04-21T08:14:39;166.47;;;72.60;;
13083;SDS011;6608;48.790;9.198;2023-04-21T08:17:05;159.73;;;68.63;;
13083;SDS011;6608;48.790;9.198;2023-04-21T08:19:32;163.80;;;70.13;;
13083;SDS011;6608;48.790;9.198;2023-04-21T08:21:58;168.87;;;71.10;;
13083;SDS011;6608;48.790;9.198;2023-04-21T08:24:24;170.20;;;70.63;;
13083;SDS011;6608;48.790;9.198;2023-04-21T08:26:52;207.67;;;89.77;;
13083;SDS011;6608;48.790;9.198;2023-04-21T08:29:19;186.17;;;82.40;;
13083;SDS011;6608;48.790;9.198;2023-04-21T08:31:45;173.63;;;71.17;;
13083;SDS011;6608;48.790;9.198;2023-04-21T08:34:12;171.57;;;70.50;;
13083;SDS011;6608;48.790;9.198;2023-04-21T08:36:38;168.87;;;69.03;;
13083;SDS011;6608;48.790;9.198;2023-04-21T08:39:05;171.03;;;71.20;;
13083;SDS011;6608;48.790;9.198;2023-04-21T08:41:31;200.13;;;89.77;;
13083;SDS011;6608;48.790;9.198;2023-04-21T08:43:59;174.47;;;71.93;;
13083;SDS011;6608;48.790;9.198;2023-04-21T08:46:26;166.70;;;69.47;;
13083;SDS011;6608;48.790;9.198;2023-04-21T08:48:52;169.13;;;70.43;;
13083;SDS011;6608;48.790;9.198;2023-04-21T08:51:20;167.87;;;69.97;;
13083;SDS011;6608;48.790;9.198;2023-04-21T08:53:47;167.83;;;70.27;;
13083;SDS011;6608;48.790;9.198;2023-04-21T08:56:13;166.70;;;70.07;;
13083;SDS011;6608;48.790;9.198;2023-04-21T08:58:40;164.47;;;68.03;;
13083;SDS011;6608;48.790;9.198;2023-04-21T09:01:08;162.03;;;67.23;;
13083;SDS011;6608;48.790;9.198;2023-04-21T09:03:35;167.30;;;69.67;;
13083;SDS011;6608;48.790;9.198;2023-04-21T09:06:02;169.00;;;69.73;;
13083;SDS011;6608;48.790;9.198;2023-04-21T09:08:29;173.40;;;70.97;;
13083;SDS011;6608;48.790;9.198;2023-04-21T09:10:56;168.57;;;70.70;;
13083;SDS011;6608;48.790;9.198;2023-04-21T09:13:27;170.60;;;69.10;;
13083;SDS011;6608;48.790;9.198;2023-04-21T09:15:54;183.65;;;76.10;;
13083;SDS011;6608;48.790;9.198;2023-04-21T09:18:22;190.00;;;79.63;;
13083;SDS011;6608;48.790;9.198;2023-04-21T09:20:50;176.17;;;71.93;;
13083;SDS011;6608;48.790;9.198;2023-04-21T09:23:16;196.50;;;83.67;;
13083;SDS011;6608;48.790;9.198;2023-04-21T09:25:43;179.63;;;73.77;;
13083;SDS011;6608;48.790;9.198;2023-04-21T09:28:10;177.27;;;72.57;;
13083;SDS011;6608;48.790;9.198;2023-04-21T09:30:37;180.73;;;73.13;;
13083;SDS011;6608;48.790;9.198;2023-04-21T09:33:04;179.80;;;73.60;;
13083;SDS011;6608;48.790;9.198;2023-04-21T09:35:33;179.83;;;74.37;;
13083;SDS011;6608;48.790;9.198;2023-04-21T09:38:00;177.13;;;72.97;;
13083;SDS011;6608;48.790;9.198;2023-04-21T09:40:27;175.63;;;72.17;;
13083;SDS011;6608;48.790;9.198;2023-04-21T09:42:54;172.40;;;71.53;;
13083;SDS011;6608;48.790;9.198;2023-04-21T09:45:20;179.77;;;75.10;;
13083;SDS011;6608;48.790;9.198;2023-04-21T09:47:48;180.03;;;73.33;;
13083;SDS011;6608;48.790;9.198;2023-04-21T09:50:16;177.67;;;73.20;;
13083;SDS011;6608;48.790;9.198;2023-04-21T09:52:44;178.13;;;72.47;;
13083;SDS011;6608;48.790;9.198;2023-04-21T09:55:13;182.37;;;73.27;;
13083;SDS011;6608;48.790;9.198;2023-04-21T09:57:40;175.83;;;71.50;;
13083;SDS011;6608;48.790;9.198;2023-04-21T10:00:07;176.50;;;72.17;;
13083;SDS011;6608;48.790;9.198;2023-04-21T10:02:36;178.13;;;71.77;;
13083;SDS011;6608;48.790;9.198;2023-04-21T10:05:03;181.53;;;73.03;;
13083;SDS011;6608;48.790;9.198;2023-04-21T10:07:31;184.67;;;74.00;;
13083;SDS011;6608;48.790;9.198;2023-04-21T10:09:58;185.83;;;74.07;;
13083;SDS011;6608;48.790;9.198;2023-04-21T10:12:26;187.33;;;73.83;;
13083;SDS011;6608;48.790;9.198;2023-04-21T10:14:52;183.30;;;72.70;;
13083;SDS011;6608;48.790;9.198;2023-04-21T10:17:20;184.77;;;73.87;;
13083;SDS011;6608;48.790;9.198;2023-04-21T10:19:48;188.60;;;76.50;;
13083;SDS011;6608;48.790;9.198;2023-04-21T10:22:18;186.93;;;74.77;;
13083;SDS011;6608;48.790;9.198;2023-04-21T10:24:53;188.20;;;75.83;;
13083;SDS011;6608;48.790;9.198;2023-04-21T10:27:31;188.20;;;76.10;;
13083;SDS011;6608;48.790;9.198;2023-04-21T10:29:57;185.27;;;73.63;;
13083;SDS011;6608;48.790;9.198;2023-04-21T10:32:30;187.97;;;74.80;;
13083;SDS011;6608;48.790;9.198;2023-04-21T10:35:04;187.93;;;74.63;;
13083;SDS011;6608;48.790;9.198;2023-04-21T10:37:33;183.57;;;73.23;;
13083;SDS011;6608;48.790;9.198;2023-04-21T10:40:00;182.40;;;72.93;;
13083;SDS011;6608;48.790;9.198;2023-04-21T10:42:33;181.57;;;72.90;;
13083;SDS011;6608;48.790;9.198;2023-04-21T10:45:07;183.60;;;73.80;;
13083;SDS011;6608;48.790;9.198;2023-04-21T10:47:35;182.90;;;73.03;;
13083;SDS011;6608;48.790;9.198;2023-04-21T10:50:12;183.67;;;74.00;;
13083;SDS011;6608;48.790;9.198;2023-04-21T10:52:42;184.73;;;74.43;;
13083;SDS011;6608;48.790;9.198;2023-04-21T10:55:09;184.47;;;73.20;;
13083;SDS011;6608;48.790;9.198;2023-04-21T10:57:40;181.43;;;73.47;;
13083;SDS011;6608;48.790;9.198;2023-04-21T11:00:07;182.50;;;72.83;;
13083;SDS011;6608;48.790;9.198;2023-04-21T11:02:34;185.90;;;73.90;;
13083;SDS011;6608;48.790;9.198;2023-04-21T11:05:00;185.13;;;74.27;;
13083;SDS011;6608;48.790;9.198;2023-04-21T11:07:27;182.03;;;72.77;;
13083;SDS011;6608;48.790;9.198;2023-04-21T11:09:55;182.97;;;73.50;;
13083;SDS011;6608;48.790;9.198;2023-04-21T11:12:24;183.17;;;72.50;;
13083;SDS011;6608;48.790;9.198;2023-04-21T11:14:52;185.87;;;74.73;;
13083;SDS011;6608;48.790;9.198;2023-04-21T11:17:19;183.00;;;72.90;;
13083;SDS011;6608;48.790;9.198;2023-04-21T11:19:47;184.00;;;72.80;;
13083;SDS011;6608;48.790;9.198;2023-04-21T11:22:15;194.80;;;81.87;;
13083;SDS011;6608;48.790;9.198;2023-04-21T11:24:43;191.57;;;74.27;;
13083;SDS011;6608;48.790;9.198;2023-04-21T11:27:09;181.23;;;72.20;;
13083;SDS011;6608;48.790;9.198;2023-04-21T11:29:36;183.87;;;73.00;;
13083;SDS011;6608;48.790;9.198;2023-04-21T11:32:05;182.00;;;72.03;;
13083;SDS011;6608;48.790;9.198;2023-04-21T11:34:32;188.47;;;75.83;;
13083;SDS011;6608;48.790;9.198;2023-04-21T11:36:59;184.60;;;73.77;;
13083;SDS011;6608;48.790;9.198;2023-04-21T11:39:26;185.83;;;74.23;;
13083;SDS011;6608;48.790;9.198;2023-04-21T11:41:52;186.03;;;74.40;;
13083;SDS011;6608;48.790;9.198;2023-04-21T11:44:32;186.50;;;73.03;;
13083;SDS011;6608;48.790;9.198;2023-04-21T11:46:59;187.20;;;72.97;;
13083;SDS011;6608;48.790;9.198;2023-04-21T11:49:27;186.30;;;73.10;;
13083;SDS011;6608;48.790;9.198;2023-04-21T11:51:54;186.17;;;73.83;;
13083;SDS011;6608;48.790;9.198;2023-04-21T11:54:21;190.47;;;76.27;;
13083;SDS011;6608;48.790;9.198;2023-04-21T11:56:48;187.30;;;73.17;;
13083;SDS011;6608;48.790;9.198;2023-04-21T11:59:15;190.60;;;75.90;;
13083;SDS011;6608;48.790;9.198;2023-04-21T12:01:43;190.47;;;74.83;;
13083;SDS011;6608;48.790;9.198;2023-04-21T12:04:12;189.70;;;75.17;;
13083;SDS011;6608;48.790;9.198;2023-04-21T12:06:40;191.87;;;75.57;;
13083;SDS011;6608;48.790;9.198;2023-04-21T12:09:07;188.90;;;75.77;;
13083;SDS011;6608;48.790;9.198;2023-04-21T12:11:33;190.80;;;76.67;;
13083;SDS011;6608;48.790;9.198;2023-04-21T12:14:00;191.43;;;75.43;;
13083;SDS011;6608;48.790;9.198;2023-04-21T12:16:27;192.67;;;76.50;;
13083;SDS011;6608;48.790;9.198;2023-04-21T12:18:54;188.27;;;74.47;;
13083;SDS011;6608;48.790;9.198;2023-04-21T12:21:20;189.50;;;76.30;;
13083;SDS011;6608;48.790;9.198;2023-04-21T12:23:48;191.27;;;75.60;;
13083;SDS011;6608;48.790;9.198;2023-04-21T12:26:15;191.87;;;76.80;;
13083;SDS011;6608;48.790;9.198;2023-04-21T12:28:41;190.07;;;75.03;;
13083;SDS011;6608;48.790;9.198;2023-04-21T12:31:07;188.70;;;75.07;;
13083;SDS011;6608;48.790;9.198;2023-04-21T12:33:34;187.83;;;74.80;;
13083;SDS011;6608;48.790;9.198;2023-04-21T12:36:00;187.83;;;73.83;;
13083;SDS011;6608;48.790;9.198;2023-04-21T12:38:27;187.27;;;73.83;;
13083;SDS011;6608;48.790;9.198;2023-04-21T12:40:55;187.60;;;74.40;;
13083;SDS011;6608;48.790;9.198;2023-04-21T12:43:21;188.73;;;74.83;;
13083;SDS011;6608;48.790;9.198;2023-04-21T12:45:51;186.37;;;73.53;;
13083;SDS011;6608;48.790;9.198;2023-04-21T12:48:17;187.93;;;73.83;;
13083;SDS011;6608;48.790;9.198;2023-04-21T12:50:46;188.17;;;74.53;;
13083;SDS011;6608;48.790;9.198;2023-04-21T12:53:12;184.67;;;72.57;;
13083;SDS011;6608;48.790;9.198;2023-04-21T12:55:39;187.27;;;73.43;;
13083;SDS011;6608;48.790;9.198;2023-04-21T12:58:07;187.70;;;74.43;;
13083;SDS011;6608;48.790;9.198;2023-04-21T13:00:34;188.97;;;75.27;;
13083;SDS011;6608;48.790;9.198;2023-04-21T13:03:01;185.67;;;72.80;;
13083;SDS011;6608;48.790;9.198;2023-04-21T13:05:28;186.33;;;74.47;;
13083;SDS011;6608;48.790;9.198;2023-04-21T13:07:55;186.10;;;73.57;;
13083;SDS011;6608;48.790;9.198;2023-04-21T13:10:24;188.60;;;74.07;;
13083;SDS011;6608;48.790;9.198;2023-04-21T13:12:51;186.33;;;72.90;;
13083;SDS011;6608;48.790;9.198;2023-04-21T13:15:19;188.83;;;74.40;;
13083;SDS011;6608;48.790;9.198;2023-04-21T13:17:45;191.73;;;77.20;;
13083;SDS011;6608;48.790;9.198;2023-04-21T13:20:12;188.00;;;73.83;;
13083;SDS011;6608;48.790;9.198;2023-04-21T13:22:38;186.47;;;72.60;;
13083;SDS011;6608;48.790;9.198;2023-04-21T13:25:05;190.50;;;74.73;;
13083;SDS011;6608;48.790;9.198;2023-04-21T13:27:38;185.93;;;73.27;;
13083;SDS011;6608;48.790;9.198;2023-04-21T13:30:06;187.20;;;73.43;;
13083;SDS011;6608;48.790;9.198;2023-04-21T13:32:34;186.73;;;73.70;;
13083;SDS011;6608;48.790;9.198;2023-04-21T13:35:01;189.83;;;74.40;;
13083;SDS011;6608;48.790;9.198;2023-04-21T13:37:29;184.00;;;72.07;;
13083;SDS011;6608;48.790;9.198;2023-04-21T13:39:55;185.77;;;73.07;;
13083;SDS011;6608;48.790;9.198;2023-04-21T13:42:22;186.80;;;72.37;;
13083;SDS011;6608;48.790;9.198;2023-04-21T13:44:49;184.07;;;71.30;;
13083;SDS011;6608;48.790;9.198;2023-04-21T13:47:15;183.90;;;71.23;;
13083;SDS011;6608;48.790;9.198;2023-04-21T13:49:44;186.50;;;73.33;;
13083;SDS011;6608;48.790;9.198;2023-04-21T13:52:11;183.67;;;71.87;;
13083;SDS011;6608;48.790;9.198;2023-04-21T13:54:37;183.20;;;72.07;;
13083;SDS011;6608;48.790;9.198;2023-04-21T13:57:05;183.57;;;72.47;;
13083;SDS011;6608;48.790;9.198;2023-04-21T13:59:34;183.90;;;71.83;;
13083;SDS011;6608;48.790;9.198;2023-04-21T14:02:06;182.70;;;71.37;;
13083;SDS011;6608;48.790;9.198;2023-04-21T14:04:33;183.67;;;72.33;;
13083;SDS011;6608;48.790;9.198;2023-04-21T14:07:05;186.40;;;72.37;;
13083;SDS011;6608;48.790;9.198;2023-04-21T14:09:32;184.50;;;71.77;;
13083;SDS011;6608;48.790;9.198;2023-04-21T14:11:58;182.83;;;71.23;;
13083;SDS011;6608;48.790;9.198;2023-04-21T14:14:29;185.03;;;71.70;;
13083;SDS011;6608;48.790;9.198;2023-04-21T14:16:56;181.33;;;71.50;;
13083;SDS011;6608;48.790;9.198;2023-04-21T14:19:24;180.83;;;70.63;;
13083;SDS011;6608;48.790;9.198;2023-04-21T14:21:53;183.97;;;70.93;;
13083;SDS011;6608;48.790;9.198;2023-04-21T14:24:21;180.80;;;71.07;;
13083;SDS011;6608;48.790;9.198;2023-04-21T14:26:52;180.03;;;69.67;;
13083;SDS011;6608;48.790;9.198;2023-04-21T14:29:21;183.03;;;71.53;;
13083;SDS011;6608;48.790;9.198;2023-04-21T14:31:48;182.00;;;71.03;;
13083;SDS011;6608;48.790;9.198;2023-04-21T14:34:17;182.00;;;71.47;;
13083;SDS011;6608;48.790;9.198;2023-04-21T14:36:46;181.33;;;70.83;;
13083;SDS011;6608;48.790;9.198;2023-04-21T14:39:15;182.33;;;70.60;;
13083;SDS011;6608;48.790;9.198;2023-04-21T14:41:43;179.67;;;69.80;;
13083;SDS011;6608;48.790;9.198;2023-04-21T14:44:10;180.30;;;69.57;;
13083;SDS011;6608;48.790;9.198;2023-04-21T14:46:36;181.83;;;71.17;;
13083;SDS011;6608;48.790;9.198;2023-04-21T14:49:03;181.53;;;72.27;;
13083;SDS011;6608;48.790;9.198;2023-04-21T14:51:30;181.03;;;71.70;;
13083;SDS011;6608;48.790;9.198;2023-04-21T14:53:57;179.33;;;69.97;;
13083;SDS011;6608;48.790;9.198;2023-04-21T14:56:23;179.70;;;70.47;;
13083;SDS011;6608;48.790;9.198;2023-04-21T14:58:54;179.50;;;70.87;;
13083;SDS011;6608;48.790;9.198;2023-04-21T15:01:21;179.13;;;69.20;;
13083;SDS011;6608;48.790;9.198;2023-04-21T15:03:47;178.70;;;69.77;;
13083;SDS011;6608;48.790;9.198;2023-04-21T15:06:23;180.93;;;71.33;;
13083;SDS011;6608;48.790;9.198;2023-04-21T15:08:50;181.93;;;70.70;;
13083;SDS011;6608;48.790;9.198;2023-04-21T15:11:16;185.17;;;71.07;;
13083;SDS011;6608;48.790;9.198;2023-04-21T15:13:43;180.30;;;69.97;;
13083;SDS011;6608;48.790;9.198;2023-04-21T15:16:11;178.50;;;69.50;;
13083;SDS011;6608;48.790;9.198;2023-04-21T15:18:37;180.77;;;70.93;;
13083;SDS011;6608;48.790;9.198;2023-04-21T15:21:05;179.43;;;69.80;;
13083;SDS011;6608;48.790;9.198;2023-04-21T15:23:31;178.87;;;69.40;;
13083;SDS011;6608;48.790;9.198;2023-04-21T15:25:59;178.17;;;69.43;;
13083;SDS011;6608;48.790;9.198;2023-04-21T15:28:26;181.40;;;70.43;;
13083;SDS011;6608;48.790;9.198;2023-04-21T15:30:53;180.00;;;70.67;;
13083;SDS011;6608;48.790;9.198;2023-04-21T15:33:21;178.97;;;70.13;;
13083;SDS011;6608;48.790;9.198;2023-04-21T15:35:47;179.97;;;69.87;;
13083;SDS011;6608;48.790;9.198;2023-04-21T15:38:14;184.33;;;70.77;;
13083;SDS011;6608;48.790;9.198;2023-04-21T15:40:40;179.00;;;69.67;;
13083;SDS011;6608;48.790;9.198;2023-04-21T15:43:07;178.63;;;69.40;;
13083;SDS011;6608;48.790;9.198;2023-04-21T15:45:33;177.60;;;68.67;;
13083;SDS011;6608;48.790;9.198;2023-04-21T15:48:00;178.57;;;68.83;;
13083;SDS011;6608;48.790;9.198;2023-04-21T15:50:28;177.97;;;69.57;;
13083;SDS011;6608;48.790;9.198;2023-04-21T15:52:55;176.37;;;68.67;;
13083;SDS011;6608;48.790;9.198;2023-04-21T15:55:21;177.57;;;69.20;;
13083;SDS011;6608;48.790;9.198;2023-04-21T15:57:48;177.57;;;68.23;;
13083;SDS011;6608;48.790;9.198;2023-04-21T16:00:15;178.77;;;70.27;;
13083;SDS011;6608;48.790;9.198;2023-04-21T16:02:41;177.57;;;68.73;;
13083;SDS011;6608;48.790;9.198;2023-04-21T16:05:08;178.17;;;69.63;;
13083;SDS011;6608;48.790;9.198;2023-04-21T16:07:35;179.87;;;70.23;;
13083;SDS011;6608;48.790;9.198;2023-04-21T16:10:02;179.00;;;69.90;;
13083;SDS011;6608;48.790;9.198;2023-04-21T16:12:28;174.73;;;66.33;;
13083;SDS011;6608;48.790;9.198;2023-04-21T16:14:54;179.57;;;70.00;;
13083;SDS011;6608;48.790;9.198;2023-04-21T16:17:21;178.73;;;69.93;;
13083;SDS011;6608;48.790;9.198;2023-04-21T16:19:48;177.97;;;69.57;;
13083;SDS011;6608;48.790;9.198;2023-04-21T16:22:15;178.13;;;69.80;;
13083;SDS011;6608;48.790;9.198;2023-04-21T16:24:43;178.60;;;69.87;;
13083;SDS011;6608;48.790;9.198;2023-04-21T16:27:09;178.03;;;69.43;;
13083;SDS011;6608;48.790;9.198;2023-04-21T16:29:35;177.63;;;68.73;;
13083;SDS011;6608;48.790;9.198;2023-04-21T16:32:02;178.17;;;69.10;;
13083;SDS011;6608;48.790;9.198;2023-04-21T16:34:28;180.00;;;68.90;;
13083;SDS011;6608;48.790;9.198;2023-04-21T16:36:54;177.10;;;68.47;;
13083;SDS011;6608;48.790;9.198;2023-04-21T16:39:21;177.10;;;68.70;;
13083;SDS011;6608;48.790;9.198;2023-04-21T16:41:49;177.30;;;69.10;;
13083;SDS011;6608;48.790;9.198;2023-04-21T16:44:15;175.70;;;68.40;;
13083;SDS011;6608;48.790;9.198;2023-04-21T16:46:41;175.97;;;68.60;;
13083;SDS011;6608;48.790;9.198;2023-04-21T16:49:08;177.73;;;69.93;;
13083;SDS011;6608;48.790;9.198;2023-04-21T16:51:36;177.40;;;69.00;;
13083;SDS011;6608;48.790;9.198;2023-04-21T16:54:08;178.07;;;69.00;;
13083;SDS011;6608;48.790;9.198;2023-04-21T16:56:34;180.40;;;70.00;;
13083;SDS011;6608;48.790;9.198;2023-04-21T16:59:02;177.93;;;70.17;;
13083;SDS011;6608;48.790;9.198;2023-04-21T17:01:28;177.97;;;69.53;;
13083;SDS011;6608;48.790;9.198;2023-04-21T17:03:54;179.23;;;69.77;;
13083;SDS011;6608;48.790;9.198;2023-04-21T17:06:21;178.23;;;70.17;;
13083;SDS011;6608;48.790;9.198;2023-04-21T17:08:47;177.40;;;69.63;;
13083;SDS011;6608;48.790;9.198;2023-04-21T17:11:14;178.37;;;69.83;;
13083;SDS011;6608;48.790;9.198;2023-04-21T17:13:40;177.97;;;68.77;;
13083;SDS011;6608;48.790;9.198;2023-04-21T17:16:08;176.67;;;68.57;;
13083;SDS011;6608;48.790;9.198;2023-04-21T17:18:34;176.40;;;68.87;;
13083;SDS011;6608;48.790;9.198;2023-04-21T17:21:01;177.23;;;68.53;;
13083;SDS011;6608;48.790;9.198;2023-04-21T17:23:30;176.63;;;68.63;;
13083;SDS011;6608;48.790;9.198;2023-04-21T17:25:56;181.20;;;71.53;;
13083;SDS011;6608;48.790;9.198;2023-04-21T17:28:22;180.03;;;70.83;;
13083;SDS011;6608;48.790;9.198;2023-04-21T17:30:49;182.63;;;69.33;;
13083;SDS011;6608;48.790;9.198;2023-04-21T17:33:17;179.93;;;68.37;;
13083;SDS011;6608;48.790;9.198;2023-04-21T17:35:43;176.27;;;68.17;;
13083;SDS011;6608;48.790;9.198;2023-04-21T17:38:10;176.10;;;69.07;;
13083;SDS011;6608;48.790;9.198;2023-04-21T17:40:36;178.03;;;68.23;;
13083;SDS011;6608;48.790;9.198;2023-04-21T17:43:03;178.40;;;70.53;;
13083;SDS011;6608;48.790;9.198;2023-04-21T17:45:29;173.73;;;65.80;;
13083;SDS011;6608;48.790;9.198;2023-04-21T17:47:56;172.70;;;66.40;;
13083;SDS011;6608;48.790;9.198;2023-04-21T17:50:24;173.30;;;66.43;;
13083;SDS011;6608;48.790;9.198;2023-04-21T17:52:51;173.43;;;67.07;;
13083;SDS011;6608;48.790;9.198;2023-04-21T17:55:17;173.53;;;67.17;;
13083;SDS011;6608;48.790;9.198;2023-04-21T17:57:44;172.80;;;66.30;;
13083;SDS011;6608;48.790;9.198;2023-04-21T18:00:11;173.07;;;67.13;;
13083;SDS011;6608;48.790;9.198;2023-04-21T18:02:37;171.37;;;65.90;;
13083;SDS011;6608;48.790;9.198;2023-04-21T18:05:04;173.40;;;67.00;;
13083;SDS011;6608;48.790;9.198;2023-04-21T18:07:32;172.67;;;66.87;;
13083;SDS011;6608;48.790;9.198;2023-04-21T18:09:58;171.30;;;66.37;;
13083;SDS011;6608;48.790;9.198;2023-04-21T18:12:25;170.70;;;65.87;;
13083;SDS011;6608;48.790;9.198;2023-04-21T18:14:51;173.07;;;66.27;;
13083;SDS011;6608;48.790;9.198;2023-04-21T18:17:18;171.47;;;66.63;;
13083;SDS011;6608;48.790;9.198;2023-04-21T18:19:44;173.50;;;68.50;;
13083;SDS011;6608;48.790;9.198;2023-04-21T18:22:11;172.00;;;66.40;;
13083;SDS011;6608;48.790;9.198;2023-04-21T18:24:39;170.57;;;65.17;;
13083;SDS011;6608;48.790;9.198;2023-04-21T18:27:05;172.03;;;66.53;;
13083;SDS011;6608;48.790;9.198;2023-04-21T18:29:34;169.67;;;65.97;;
13083;SDS011;6608;48.790;9.198;2023-04-21T18:32:01;171.63;;;65.20;;
13083;SDS011;6608;48.790;9.198;2023-04-21T18:34:27;169.30;;;65.97;;
13083;SDS011;6608;48.790;9.198;2023-04-21T18:36:53;170.47;;;66.37;;
13083;SDS011;6608;48.790;9.198;2023-04-21T18:39:20;172.60;;;65.40;;
13083;SDS011;6608;48.790;9.198;2023-04-21T18:41:47;169.47;;;65.30;;
13083;SDS011;6608;48.790;9.198;2023-04-21T18:44:14;171.40;;;67.33;;
13083;SDS011;6608;48.790;9.198;2023-04-21T18:46:41;171.27;;;66.50;;
13083;SDS011;6608;48.790;9.198;2023-04-21T18:49:07;172.80;;;66.37;;
13083;SDS011;6608;48.790;9.198;2023-04-21T18:51:34;170.40;;;65.97;;
13083;SDS011;6608;48.790;9.198;2023-04-21T18:54:00;171.47;;;66.63;;
13083;SDS011;6608;48.790;9.198;2023-04-21T18:56:28;167.60;;;63.97;;
13083;SDS011;6608;48.790;9.198;2023-04-21T18:58:57;171.47;;;65.43;;
13083;SDS011;6608;48.790;9.198;2023-04-21T19:01:24;167.60;;;63.80;;
13083;SDS011;6608;48.790;9.198;2023-04-21T19:03:50;168.50;;;64.57;;
13083;SDS011;6608;48.790;9.198;2023-04-21T19:06:17;170.30;;;64.80;;
13083;SDS011;6608;48.790;9.198;2023-04-21T19:08:43;168.40;;;64.90;;
13083;SDS011;6608;48.790;9.198;2023-04-21T19:11:10;166.90;;;64.50;;
13083;SDS011;6608;48.790;9.198;2023-04-21T19:13:36;166.40;;;64.60;;
13083;SDS011;6608;48.790;9.198;2023-04-21T19:16:04;164.27;;;62.47;;
13083;SDS011;6608;48.790;9.198;2023-04-21T19:18:32;165.97;;;64.53;;
13083;SDS011;6608;48.790;9.198;2023-04-21T19:20:58;165.83;;;64.17;;
13083;SDS011;6608;48.790;9.198;2023-04-21T19:23:25;165.07;;;63.60;;
13083;SDS011;6608;48.790;9.198;2023-04-21T19:25:51;165.73;;;64.60;;
13083;SDS011;6608;48.790;9.198;2023-04-21T19:28:20;167.00;;;65.93;;
13083;SDS011;6608;48.790;9.198;2023-04-21T19:30:47;165.33;;;64.37;;
13083;SDS011;6608;48.790;9.198;2023-04-21T19:33:14;164.37;;;64.03;;
13083;SDS011;6608;48.790;9.198;2023-04-21T19:35:41;167.57;;;64.47;;
13083;SDS011;6608;48.790;9.198;2023-04-21T19:38:07;166.70;;;64.43;;
13083;SDS011;6608;48.790;9.198;2023-04-21T19:40:34;167.90;;;64.30;;
13083;SDS011;6608;48.790;9.198;2023-04-21T19:43:00;171.03;;;64.60;;
13083;SDS011;6608;48.790;9.198;2023-04-21T19:45:28;167.67;;;64.37;;
13083;SDS011;6608;48.790;9.198;2023-04-21T19:47:54;163.53;;;63.43;;
13083;SDS011;6608;48.790;9.198;2023-04-21T19:50:22;166.03;;;64.57;;
13083;SDS011;6608;48.790;9.198;2023-04-21T19:52:48;164.80;;;63.57;;
13083;SDS011;6608;48.790;9.198;2023-04-21T19:55:15;164.93;;;64.83;;
13083;SDS011;6608;48.790;9.198;2023-04-21T19:57:41;167.33;;;65.10;;
13083;SDS011;6608;48.790;9.198;2023-04-21T20:00:08;166.47;;;64.63;;
13083;SDS011;6608;48.790;9.198;2023-04-21T20:02:35;169.03;;;64.67;;
13083;SDS011;6608;48.790;9.198;2023-04-21T20:05:01;165.33;;;64.83;;
13083;SDS011;6608;48.790;9.198;2023-04-21T20:07:29;163.47;;;63.87;;
13083;SDS011;6608;48.790;9.198;2023-04-21T20:09:55;166.83;;;65.00;;
13083;SDS011;6608;48.790;9.198;2023-04-21T20:12:22;167.73;;;65.50;;
13083;SDS011;6608;48.790;9.198;2023-04-21T20:14:48;165.43;;;64.97;;
13083;SDS011;6608;48.790;9.198;2023-04-21T20:17:15;162.33;;;63.00;;
13083;SDS011;6608;48.790;9.198;2023-04-21T20:19:42;163.07;;;62.80;;
13083;SDS011;6608;48.790;9.198;2023-04-21T20:22:10;162.17;;;62.53;;
13083;SDS011;6608;48.790;9.198;2023-04-21T20:24:38;166.63;;;65.47;;
13083;SDS011;6608;48.790;9.198;2023-04-21T20:27:05;163.00;;;63.70;;
13083;SDS011;6608;48.790;9.198;2023-04-21T20:29:32;163.30;;;63.90;;
13083;SDS011;6608;48.790;9.198;2023-04-21T20:31:58;167.03;;;66.47;;
13083;SDS011;6608;48.790;9.198;2023-04-21T20:34:25;165.43;;;66.40;;
13083;SDS011;6608;48.790;9.198;2023-04-21T20:36:51;168.53;;;65.83;;
13083;SDS011;6608;48.790;9.198;2023-04-21T20:39:18;166.67;;;66.67;;
13083;SDS011;6608;48.790;9.198;2023-04-21T20:41:46;165.50;;;65.77;;
13083;SDS011;6608;48.790;9.198;2023-04-21T20:44:13;165.40;;;65.57;;
13083;SDS011;6608;48.790;9.198;2023-04-21T20:46:40;165.97;;;66.30;;
13083;SDS011;6608;48.790;9.198;2023-04-21T20:49:07;165.60;;;65.93;;
13083;SDS011;6608;48.790;9.198;2023-04-21T20:51:35;167.10;;;65.70;;
13083;SDS011;6608;48.790;9.198;2023-04-21T20:54:02;164.97;;;65.40;;
13083;SDS011;6608;48.790;9.198;2023-04-21T20:56:28;168.70;;;64.80;;
13083;SDS011;6608;48.790;9.198;2023-04-21T20:58:56;169.20;;;67.17;;
13083;SDS011;6608;48.790;9.198;2023-04-21T21:01:22;164.73;;;64.27;;
13083;SDS011;6608;48.790;9.198;2023-04-21T21:03:49;165.47;;;66.17;;
13083;SDS011;6608;48.790;9.198;2023-04-21T21:06:15;164.70;;;65.57;;
13083;SDS011;6608;48.790;9.198;2023-04-21T21:08:43;164.90;;;64.87;;
13083;SDS011;6608;48.790;9.198;2023-04-21T21:11:10;165.47;;;64.60;;
13083;SDS011;6608;48.790;9.198;2023-04-21T21:13:36;163.20;;;64.60;;
13083;SDS011;6608;48.790;9.198;2023-04-21T21:16:05;162.50;;;65.10;;
13083;SDS011;6608;48.790;9.198;2023-04-21T21:18:31;163.00;;;65.07;;
13083;SDS011;6608;48.790;9.198;2023-04-21T21:20:59;164.67;;;65.70;;
13083;SDS011;6608;48.790;9.198;2023-04-21T21:23:26;166.87;;;66.57;;
13083;SDS011;6608;48.790;9.198;2023-04-21T21:25:52;168.57;;;64.43;;
13083;SDS011;6608;48.790;9.198;2023-04-21T21:28:18;163.30;;;64.43;;
13083;SDS011;6608;48.790;9.198;2023-04-21T21:30:45;163.83;;;65.83;;
13083;SDS011;6608;48.790;9.198;2023-04-21T21:33:12;165.63;;;65.63;;
13083;SDS011;6608;48.790;9.198;2023-04-21T21:35:39;164.50;;;65.23;;
13083;SDS011;6608;48.790;9.198;2023-04-21T21:38:05;163.77;;;64.70;;
13083;SDS011;6608;48.790;9.198;2023-04-21T21:40:32;162.67;;;64.57;;
13083;SDS011;6608;48.790;9.198;2023-04-21T21:42:58;164.70;;;65.33;;
13083;SDS011;6608;48.790;9.198;2023-04-21T21:45:25;165.50;;;65.30;;
13083;SDS011;6608;48.790;9.198;2023-04-21T21:47:51;163.23;;;64.97;;
13083;SDS011;6608;48.790;9.198;2023-04-21T21:50:19;162.97;;;64.77;;
13083;SDS011;6608;48.790;9.198;2023-04-21T21:52:45;163.13;;;64.43;;
13083;SDS011;6608;48.790;9.198;2023-04-21T21:55:12;161.93;;;64.30;;
13083;SDS011;6608;48.790;9.198;2023-04-21T21:57:38;163.60;;;63.97;;
13083;SDS011;6608;48.790;9.198;2023-04-21T22:00:05;160.67;;;64.10;;
13083;SDS011;6608;48.790;9.198;2023-04-21T22:02:33;162.03;;;64.23;;
13083;SDS011;6608;48.790;9.198;2023-04-21T22:05:00;166.20;;;65.63;;
13083;SDS011;6608;48.790;9.198;2023-04-21T22:07:29;165.67;;;64.73;;
13083;SDS011;6608;48.790;9.198;2023-04-21T22:09:55;160.07;;;63.73;;
13083;SDS011;6608;48.790;9.198;2023-04-21T22:12:23;160.63;;;64.23;;
13083;SDS011;6608;48.790;9.198;2023-04-21T22:14:50;162.77;;;64.93;;
13083;SDS011;6608;48.790;9.198;2023-04-21T22:17:16;161.50;;;63.97;;
13083;SDS011;6608;48.790;9.198;2023-04-21T22:19:43;163.40;;;63.20;;
13083;SDS011;6608;48.790;9.198;2023-04-21T22:22:09;159.60;;;63.37;;
13083;SDS011;6608;48.790;9.198;2023-04-21T22:24:37;162.17;;;64.87;;
13083;SDS011;6608;48.790;9.198;2023-04-21T22:27:03;159.60;;;62.90;;
13083;SDS011;6608;48.790;9.198;2023-04-21T22:29:30;167.73;;;65.00;;